Time;durP1;ratioP1;P1;durP2;ratioP2;P2;SDS_P1;SDS_P2;PMS_P1;PMS_P2;Temp;Humidity;BMP_temperature;BMP_pressure;BME280_temperature;BME280_humidity;BME280_pressure;Samples;Min_cycle;Max_cycle;Signal;HPM_P1;HPM_P2
2023/07/18 00:00:38;;;;;;;14.73;5.85;;;;;;;24.45;47.13;100071.42;1739496;82;21347;-79
2023/07/18 00:03:33;;;;;;;12.05;5.45;;;;;;;24.46;46.94;100068.91;1738397;81;21633;-80
2023/07/18 00:06:19;;;;;;;16.55;5.85;;;;;;;24.44;46.91;100061.37;1739715;82;21327;-79
2023/07/18 00:09:11;;;;;;;17.95;5.92;;;;;;;24.37;47.07;100057.97;1738298;82;21307;-79
2023/07/18 00:12:16;;;;;;;15.10;5.45;;;;;;;24.17;47.50;100052.55;1739598;82;21300;-79
2023/07/18 00:15:22;;;;;;;21.07;6.20;;;;;;;24.27;47.44;100050.35;1735057;82;21352;-79
2023/07/18 00:18:28;;;;;;;12.28;5.58;;;;;;;24.23;47.65;100048.69;1733928;83;21335;-79
2023/07/18 00:21:33;;;;;;;17.17;5.35;;;;;;;24.25;47.80;100046.17;1733972;83;21312;-79
2023/07/18 00:24:39;;;;;;;18.07;5.78;;;;;;;24.22;47.71;100034.41;1733474;83;21982;-80
2023/07/18 00:27:47;;;;;;;15.03;5.60;;;;;;;24.31;47.44;100025.50;1733893;83;21315;-80
2023/07/18 00:30:55;;;;;;;13.18;5.60;;;;;;;24.41;47.17;100029.76;1733776;83;21870;-80
2023/07/18 00:34:03;;;;;;;13.15;5.67;;;;;;;24.39;47.14;100024.45;1733794;83;23170;-79
2023/07/18 00:37:09;;;;;;;17.07;6.33;;;;;;;24.42;47.28;100028.67;1732452;83;21867;-79
2023/07/18 00:40:20;;;;;;;13.18;6.05;;;;;;;24.36;47.54;100030.58;1732387;83;21325;-79
2023/07/18 00:43:25;;;;;;;19.00;6.20;;;;;;;24.30;47.21;100034.45;1732376;83;21367;-79
2023/07/18 00:46:31;;;;;;;12.45;5.75;;;;;;;24.22;47.05;100029.38;1733702;82;21336;-81
2023/07/18 00:49:38;;;;;;;14.73;5.67;;;;;;;24.07;47.23;100031.55;1733966;83;21304;-81
2023/07/18 00:52:47;;;;;;;15.60;6.58;;;;;;;24.14;47.12;100026.57;1733927;83;21304;-80
2023/07/18 00:55:55;;;;;;;16.75;6.92;;;;;;;24.18;47.13;100021.25;1732991;83;21432;-81
2023/07/18 00:59:01;;;;;;;16.80;6.80;;;;;;;24.07;47.43;100015.34;1733882;83;21355;-80
2023/07/18 01:06:18;;;;;;;18.53;6.70;;;;;;;23.90;48.10;100003.83;1732994;82;21201;-81
2023/07/18 01:09:24;;;;;;;15.50;7.00;;;;;;;24.03;48.08;100010.86;1733859;83;21452;-81
2023/07/18 01:12:30;;;;;;;25.32;6.80;;;;;;;24.10;47.93;100005.88;1733817;83;21327;-80
2023/07/18 01:15:38;;;;;;;16.10;6.35;;;;;;;24.00;48.38;100000.25;1733154;82;21994;-80
2023/07/18 01:18:44;;;;;;;16.60;6.60;;;;;;;24.26;48.13;99994.19;1738168;82;22544;-80
2023/07/18 01:21:49;;;;;;;24.18;6.72;;;;;;;24.21;48.49;99986.63;1738624;82;21921;-80
2023/07/18 01:24:55;;;;;;;22.02;5.72;;;;;;;24.07;48.93;99989.64;1739528;82;21355;-80
2023/07/18 01:28:03;;;;;;;18.42;7.22;;;;;;;24.02;49.08;99988.23;1738422;82;21343;-80
2023/07/18 01:31:09;;;;;;;18.02;6.05;;;;;;;24.05;49.16;99990.48;1739567;82;21316;-80
2023/07/18 01:34:08;;;;;;;15.27;5.73;;;;;;;23.97;49.22;99991.00;1739890;82;21304;-80
2023/07/18 01:37:15;;;;;;;16.30;5.90;;;;;;;23.92;49.27;99985.40;1738325;82;22048;-80
2023/07/18 01:40:23;;;;;;;24.60;6.28;;;;;;;23.81;49.55;100000.44;1739690;82;21312;-80
2023/07/18 01:43:28;;;;;;;20.00;6.70;;;;;;;23.98;49.23;99995.47;1739693;82;21316;-80
2023/07/18 01:46:34;;;;;;;15.13;6.35;;;;;;;23.89;49.22;99991.52;1738706;82;21339;-80
2023/07/18 01:49:35;;;;;;;16.73;6.50;;;;;;;23.90;49.06;99993.19;1739555;82;21910;-80
2023/07/18 01:52:28;;;;;;;13.22;6.30;;;;;;;23.76;49.17;99995.66;1738240;82;21331;-80
2023/07/18 01:55:14;;;;;;;16.07;7.00;;;;;;;23.76;49.17;99994.27;1739411;82;21910;-80
2023/07/18 01:58:07;;;;;;;25.52;7.17;;;;;;;23.71;49.38;99999.27;1739521;82;21309;-80
2023/07/18 02:01:12;;;;;;;21.42;6.58;;;;;;;23.77;49.43;99997.89;1739678;82;21311;-79
2023/07/18 02:04:18;;;;;;;22.82;6.72;;;;;;;23.86;49.28;99992.08;1739691;82;21327;-80
2023/07/18 02:07:25;;;;;;;21.55;6.70;;;;;;;23.97;48.95;99988.21;1738196;82;21386;-80
2023/07/18 02:10:32;;;;;;;16.85;6.30;;;;;;;23.92;49.25;99993.78;1739684;82;21752;-80
2023/07/18 02:13:37;;;;;;;19.62;6.83;;;;;;;23.85;49.20;99995.96;1739683;82;21312;-80
2023/07/18 02:16:44;;;;;;;15.08;6.45;;;;;;;24.04;48.88;99987.95;1738275;82;21343;-80
2023/07/18 02:19:49;;;;;;;18.48;6.78;;;;;;;24.15;48.50;99992.48;1732536;83;21335;-80
2023/07/18 02:22:50;;;;;;;16.93;6.30;;;;;;;24.18;48.43;99989.12;1733850;83;21343;-79
2023/07/18 02:25:43;;;;;;;18.42;6.67;;;;;;;24.32;48.40;99983.30;1733702;83;21312;-79
2023/07/18 02:28:49;;;;;;;13.47;6.43;;;;;;;24.50;48.36;99981.98;1734081;83;21300;-79
2023/07/18 02:31:54;;;;;;;25.15;7.90;;;;;;;24.83;48.00;99975.04;1733765;83;21582;-80
2023/07/18 02:35:02;;;;;;;25.65;7.40;;;;;;;25.19;47.80;99982.91;1732567;83;21358;-80
2023/07/18 02:38:09;;;;;;;23.40;6.87;;;;;;;25.43;48.18;99978.97;1732436;83;21323;-80
2023/07/18 02:41:15;;;;;;;18.85;8.53;;;;;;;25.80;47.65;99967.15;1733693;83;21323;-80
2023/07/18 02:44:21;;;;;;;25.75;9.48;;;;;;;26.30;46.93;99966.62;1733856;83;21867;-80
2023/07/18 02:47:28;;;;;;;29.07;8.13;;;;;;;26.67;46.51;99970.36;1732871;83;21324;-80
2023/07/18 02:50:35;;;;;;;27.22;7.47;;;;;;;27.20;45.50;99967.73;1733992;83;21312;-80
2023/07/18 02:53:42;;;;;;;31.23;7.20;;;;;;;27.54;44.94;99964.86;1733794;82;22540;-79
2023/07/18 02:56:49;;;;;;;24.37;7.17;;;;;;;27.79;44.78;99962.36;1733226;83;21360;-80
2023/07/18 02:59:55;;;;;;;14.55;6.90;;;;;;;28.16;44.30;99959.38;1733745;83;21383;-80
2023/07/18 03:03:00;;;;;;;19.77;7.22;;;;;;;28.48;43.94;99956.70;1733097;81;21347;-80
2023/07/18 03:06:08;;;;;;;13.20;6.28;;;;;;;28.75;43.96;99964.45;1733811;83;21312;-80
2023/07/18 03:09:09;;;;;;;14.70;5.65;;;;;;;28.76;44.30;99963.31;1733994;82;21375;-79
2023/07/18 03:12:15;;;;;;;15.48;6.55;;;;;;;28.78;44.62;99969.45;1733772;83;21317;-81
2023/07/18 03:15:20;;;;;;;13.93;6.22;;;;;;;28.89;44.36;99972.09;1733931;83;21344;-81
2023/07/18 03:18:26;;;;;;;14.75;7.12;;;;;;;29.16;43.87;99978.44;1732121;82;21331;-80
2023/07/18 03:21:32;;;;;;;17.98;7.50;;;;;;;29.50;43.06;99979.52;1732471;83;21311;-81
2023/07/18 03:24:40;;;;;;;19.92;6.83;;;;;;;29.73;42.92;99972.89;1732587;83;21855;-80
2023/07/18 03:27:45;;;;;;;15.35;6.53;;;;;;;29.95;42.53;99967.12;1733166;83;21328;-80
2023/07/18 03:30:51;;;;;;;20.65;6.58;;;;;;;30.07;42.43;99961.80;1733994;83;21300;-80
2023/07/18 03:33:58;;;;;;;12.55;5.80;;;;;;;30.28;42.13;99962.21;1733967;83;21319;-80
2023/07/18 03:37:04;;;;;;;11.80;5.30;;;;;;;30.48;41.75;99958.09;1733633;83;21359;-80
2023/07/18 03:40:11;;;;;;;15.83;5.62;;;;;;;30.58;41.32;99959.25;1733861;83;21325;-80
2023/07/18 03:43:19;;;;;;;13.85;5.95;;;;;;;30.78;40.69;99960.23;1733355;83;21339;-80
2023/07/18 03:46:25;;;;;;;14.93;5.92;;;;;;;31.11;39.12;99962.81;1733909;83;21308;-80
2023/07/18 03:49:30;;;;;;;18.20;6.85;;;;;;;31.29;38.21;99966.04;1733853;82;21307;-79
2023/07/18 03:52:36;;;;;;;11.05;5.97;;;;;;;31.44;37.63;99958.31;1733815;83;21308;-80
2023/07/18 03:55:43;;;;;;;12.35;5.30;;;;;;;31.55;37.27;99970.41;1733817;83;21315;-80
2023/07/18 03:58:48;;;;;;;22.75;6.05;;;;;;;31.62;36.71;99965.72;1733249;83;21320;-80
2023/07/18 04:01:54;;;;;;;15.48;6.60;;;;;;;31.65;36.61;99966.46;1733533;81;21335;-80
2023/07/18 04:04:59;;;;;;;20.48;7.37;;;;;;;31.79;36.55;99965.77;1733548;83;21308;-80
2023/07/18 04:08:05;;;;;;;22.67;8.35;;;;;;;31.68;36.63;99970.64;1733135;83;21308;-80
2023/07/18 04:11:10;;;;;;;21.82;10.18;;;;;;;31.78;36.59;99968.94;1733884;83;21903;-80
2023/07/18 04:14:18;;;;;;;27.02;12.03;;;;;;;31.77;36.63;99966.70;1733064;83;21922;-80
2023/07/18 04:17:25;;;;;;;28.27;10.38;;;;;;;31.90;36.34;99971.16;1733842;83;21395;-80
2023/07/18 04:20:32;;;;;;;31.65;14.25;;;;;;;31.86;36.31;99965.94;1734142;82;21363;-80
2023/07/18 04:23:38;;;;;;;34.27;15.23;;;;;;;31.70;36.12;99970.56;1739062;82;21303;-80
2023/07/18 04:26:43;;;;;;;53.15;18.52;;;;;;;31.68;36.47;99968.65;1739007;82;21328;-80
2023/07/18 04:29:43;;;;;;;45.78;21.15;;;;;;;31.84;35.77;99969.66;1738053;82;21927;-80
2023/07/18 04:32:35;;;;;;;47.10;21.33;;;;;;;31.92;35.62;99968.86;1738965;82;21292;-80
2023/07/18 04:35:41;;;;;;;;;;;;;;;31.99;35.35;99966.38;1742279;82;21307;-80
2023/07/18 04:38:47;;;;;;;53.98;21.10;;;;;;;32.03;35.40;99970.22;1738770;82;20272;-80
2023/07/18 04:41:56;;;;;;;40.95;18.12;;;;;;;32.14;34.33;99971.61;1739630;82;21331;-80
2023/07/18 04:45:02;;;;;;;43.17;19.85;;;;;;;32.31;33.16;99973.04;1738524;82;21343;-79
2023/07/18 04:48:09;;;;;;;44.63;19.07;;;;;;;32.44;32.44;99969.86;1739285;82;21308;-79
2023/07/18 04:51:16;;;;;;;47.23;19.35;;;;;;;32.53;31.88;99964.21;1739628;82;21336;-79
2023/07/18 04:54:21;;;;;;;48.33;19.87;;;;;;;32.68;32.13;99972.80;1739502;82;21562;-79
2023/07/18 04:57:26;;;;;;;50.20;22.30;;;;;;;32.79;31.42;99967.05;1739508;82;21347;-80
2023/07/18 05:00:32;;;;;;;46.08;20.40;;;;;;;32.88;31.42;99970.70;1738372;82;21343;-81
2023/07/18 05:03:38;;;;;;;54.63;20.10;;;;;;;33.10;30.98;99972.56;1738343;81;21330;-79
2023/07/18 05:06:45;;;;;;;50.25;21.48;;;;;;;33.34;30.65;99970.60;1739585;82;21303;-79
2023/07/18 05:09:52;;;;;;;42.10;17.82;;;;;;;33.70;30.71;99962.28;1738351;82;21890;-79
2023/07/18 05:12:58;;;;;;;43.15;15.63;;;;;;;34.00;31.00;99970.27;1739523;82;21308;-79
2023/07/18 05:16:09;;;;;;;36.13;15.48;;;;;;;34.15;30.28;99968.25;1738101;82;21335;-79
2023/07/18 05:19:15;;;;;;;25.80;12.45;;;;;;;34.22;30.26;99956.37;1738873;82;21378;-79
2023/07/18 05:22:21;;;;;;;24.18;11.05;;;;;;;34.10;30.16;99957.69;1737899;82;21328;-79
2023/07/18 05:25:27;;;;;;;27.82;11.50;;;;;;;34.12;29.65;99948.27;1739626;82;21331;-79
2023/07/18 05:28:29;;;;;;;25.32;10.85;;;;;;;34.23;29.87;99943.25;1738581;82;22569;-79
2023/07/18 05:31:20;;;;;;;21.23;10.50;;;;;;;34.38;29.94;99935.31;1739602;82;21859;-79
2023/07/18 05:34:26;;;;;;;19.57;7.40;;;;;;;34.46;29.76;99935.88;1739873;82;21307;-79
2023/07/18 05:37:32;;;;;;;17.80;7.00;;;;;;;34.54;29.00;99943.50;1739890;82;21340;-79
2023/07/18 05:40:38;;;;;;;12.88;6.30;;;;;;;34.68;28.94;99936.95;1738045;82;21367;-79
2023/07/18 05:43:44;;;;;;;15.68;6.33;;;;;;;34.68;28.65;99931.28;1739688;82;21315;-79
2023/07/18 05:46:50;;;;;;;13.50;5.53;;;;;;;34.79;28.84;99928.24;1739699;82;21304;-79
2023/07/18 05:49:57;;;;;;;15.80;5.90;;;;;;;34.84;28.61;99937.14;1738720;82;21225;-81
2023/07/18 05:53:03;;;;;;;14.18;5.40;;;;;;;34.85;28.65;99937.38;1739468;82;21355;-79
2023/07/18 05:56:10;;;;;;;19.98;4.62;;;;;;;35.06;28.81;99926.02;1738975;82;21332;-79
2023/07/18 05:59:17;;;;;;;11.38;5.12;;;;;;;35.20;28.52;99929.98;1738749;82;21351;-79
2023/07/18 06:02:23;;;;;;;19.27;5.20;;;;;;;35.32;28.02;99936.51;1739051;81;21347;-79
2023/07/18 06:05:29;;;;;;;21.02;5.17;;;;;;;35.50;27.80;99937.77;1739655;82;22602;-78
2023/07/18 06:08:35;;;;;;;10.68;3.50;;;;;;;35.60;27.53;99934.47;1739617;82;21307;-80
2023/07/18 06:11:42;;;;;;;14.20;3.83;;;;;;;35.64;26.32;99928.91;1733186;82;21292;-79
2023/07/18 06:14:48;;;;;;;6.60;3.65;;;;;;;35.52;26.58;99931.13;1726082;82;21306;-79
2023/07/18 06:17:54;;;;;;;8.05;3.50;;;;;;;35.44;26.79;99924.95;1705186;84;21292;-80
2023/07/18 06:21:00;;;;;;;7.78;3.33;;;;;;;35.50;26.28;99922.13;1701632;84;21395;-79
2023/07/18 06:24:06;;;;;;;9.60;2.90;;;;;;;35.53;26.42;99922.27;1700123;83;21636;-81
2023/07/18 06:27:14;;;;;;;7.45;3.47;;;;;;;35.62;25.84;99915.05;1713913;83;21301;-80
2023/07/18 06:30:20;;;;;;;16.42;4.12;;;;;;;35.68;25.97;99915.64;1700199;83;21884;-80
2023/07/18 06:33:26;;;;;;;12.82;4.05;;;;;;;35.80;26.17;99917.87;1703914;83;21856;-81
2023/07/18 06:36:25;;;;;;;11.48;4.10;;;;;;;35.95;26.33;99911.27;1710204;83;21279;-80
2023/07/18 06:39:31;;;;;;;8.50;3.80;;;;;;;36.07;25.97;99915.55;1714483;83;21338;-80
2023/07/18 06:42:37;;;;;;;12.03;4.10;;;;;;;36.04;25.31;99909.98;1704958;84;21330;-80
2023/07/18 06:45:42;;;;;;;10.65;3.83;;;;;;;36.11;25.63;99903.68;1695603;83;21382;-80
2023/07/18 06:48:49;;;;;;;8.98;3.55;;;;;;;36.19;25.29;99907.00;1696128;83;21308;-80
2023/07/18 06:51:55;;;;;;;10.68;3.58;;;;;;;36.23;25.30;99909.37;1762095;81;21312;-80
2023/07/18 06:55:04;;;;;;;11.20;3.65;;;;;;;36.19;25.40;99904.75;1768204;81;21291;-80
2023/07/18 06:58:10;;;;;;;10.03;3.75;;;;;;;36.24;25.45;99903.91;1768604;81;21295;-80
2023/07/18 07:01:15;;;;;;;9.68;3.25;;;;;;;36.30;25.86;99899.61;1752050;79;22659;-80
2023/07/18 07:04:21;;;;;;;15.20;3.90;;;;;;;36.47;25.95;99894.87;1752789;81;21323;-80
2023/07/18 07:07:28;;;;;;;12.70;3.15;;;;;;;36.55;25.63;99889.01;1760976;81;21194;-80
2023/07/18 07:10:36;;;;;;;11.22;3.22;;;;;;;36.70;24.69;99897.98;1769157;81;21300;-79
2023/07/18 07:13:44;;;;;;;13.15;3.90;;;;;;;36.94;24.37;99896.50;1769824;81;21874;-81
2023/07/18 07:16:51;;;;;;;11.03;3.50;;;;;;;37.02;24.71;99893.23;1738517;82;21328;-81
2023/07/18 07:19:57;;;;;;;13.05;3.72;;;;;;;37.06;24.66;99888.47;1702136;84;21323;-81
2023/07/18 07:23:03;;;;;;;9.25;3.95;;;;;;;37.10;24.69;99899.38;1754830;79;21276;-80
2023/07/18 07:26:10;;;;;;;11.18;3.22;;;;;;;37.37;24.08;99904.80;1758892;79;21267;-80
2023/07/18 07:29:16;;;;;;;9.65;3.08;;;;;;;37.40;22.94;99901.84;1761008;81;21302;-80
2023/07/18 07:32:17;;;;;;;5.62;2.92;;;;;;;37.54;23.34;99900.78;1759492;81;21338;-80
2023/07/18 07:35:23;;;;;;;11.55;3.25;;;;;;;37.57;22.89;99898.63;1760846;81;21327;-80
2023/07/18 07:38:28;;;;;;;7.42;3.05;;;;;;;37.63;23.22;99897.15;1777283;80;21276;-80
2023/07/18 07:41:35;;;;;;;12.90;3.80;;;;;;;37.77;23.34;99898.94;1768182;80;21646;-80
2023/07/18 07:44:40;;;;;;;8.60;3.42;;;;;;;37.68;23.36;99896.05;1779041;80;21640;-80
2023/07/18 07:47:46;;;;;;;4.25;2.42;;;;;;;37.80;23.39;99891.67;1779435;80;21331;-80
2023/07/18 07:50:53;;;;;;;7.85;3.10;;;;;;;37.84;22.20;99882.03;1778691;80;21296;-80
2023/07/18 07:54:00;;;;;;;11.53;3.75;;;;;;;37.53;22.04;99880.59;1778987;80;21189;-80
2023/07/18 07:57:07;;;;;;;6.83;3.00;;;;;;;37.47;22.98;99877.20;1763635;80;21781;-80
2023/07/18 08:00:15;;;;;;;6.35;3.15;;;;;;;37.64;23.13;99880.25;1742366;82;21864;-81
2023/07/18 08:03:22;;;;;;;7.22;3.02;;;;;;;37.82;23.17;99882.95;1741321;82;21307;-80
2023/07/18 08:06:30;;;;;;;11.63;3.70;;;;;;;38.05;23.60;99892.30;1742290;82;21634;-80
2023/07/18 08:09:36;;;;;;;5.60;3.10;;;;;;;38.10;22.22;99876.31;1742389;82;21299;-80
2023/07/18 08:12:43;;;;;;;9.83;3.45;;;;;;;38.06;21.97;99876.83;1741217;82;21298;-80
2023/07/18 08:15:50;;;;;;;5.50;2.98;;;;;;;37.97;21.97;99879.91;1765423;80;21280;-80
2023/07/18 08:18:56;;;;;;;7.20;3.37;;;;;;;38.07;23.08;99871.37;1776958;80;21331;-80
2023/07/18 08:22:02;;;;;;;4.97;2.92;;;;;;;38.21;23.00;99868.02;1776427;80;21339;-80
2023/07/18 08:25:10;;;;;;;5.60;2.87;;;;;;;38.31;22.68;99865.42;1777389;80;21315;-80
2023/07/18 08:28:16;;;;;;;4.15;2.92;;;;;;;38.42;22.40;99856.26;1784056;80;21280;-80
2023/07/18 08:31:21;;;;;;;6.58;3.12;;;;;;;38.53;22.57;99858.13;1784077;80;21339;-80
2023/07/18 08:34:28;;;;;;;9.08;2.75;;;;;;;38.64;21.51;99854.69;1784379;79;21339;-80
2023/07/18 08:37:34;;;;;;;6.50;2.55;;;;;;;38.56;22.17;99853.70;1784338;80;21303;-80
2023/07/18 08:40:39;;;;;;;5.37;2.87;;;;;;;38.44;21.41;99846.09;1773298;80;21294;-80
2023/07/18 08:43:46;;;;;;;8.45;3.10;;;;;;;38.32;21.01;99841.37;1745372;82;21857;-80
2023/07/18 08:46:52;;;;;;;4.70;2.77;;;;;;;38.33;20.86;99843.62;1745309;82;21326;-80
2023/07/18 08:49:58;;;;;;;8.23;2.87;;;;;;;38.49;21.22;99839.25;1753391;79;21315;-80
2023/07/18 08:53:05;;;;;;;4.97;2.65;;;;;;;38.57;21.79;99838.20;1775900;80;21362;-80
2023/07/18 08:56:11;;;;;;;10.45;2.72;;;;;;;38.70;21.79;99828.89;1780499;79;21350;-80
2023/07/18 08:59:19;;;;;;;8.78;3.00;;;;;;;38.73;20.81;99831.00;1781409;80;21882;-81
2023/07/18 09:02:25;;;;;;;5.62;2.92;;;;;;;38.60;20.32;99818.90;1749602;79;21327;-81
2023/07/18 09:05:43;;;;;;;11.43;3.00;;;;;;;38.68;20.95;99829.84;1782105;80;21312;-81
2023/07/18 09:08:51;;;;;;;6.28;3.00;;;;;;;38.72;21.62;99837.29;1783048;80;21336;-81
2023/07/18 09:12:06;;;;;;;11.35;2.62;;;;;;;38.81;21.95;99832.20;1784120;80;21303;-80
2023/07/18 09:15:13;;;;;;;8.95;2.20;;;;;;;38.75;21.23;99826.58;1783129;80;21299;-81
2023/07/18 09:18:15;;;;;;;7.60;3.17;;;;;;;38.68;20.82;99821.28;1783132;80;21316;-80
2023/07/18 09:21:06;;;;;;;6.83;2.95;;;;;;;38.63;21.51;99816.72;1769923;80;21292;-80
2023/07/18 09:24:12;;;;;;;6.65;2.65;;;;;;;38.75;21.88;99813.72;1751012;80;21326;-81
2023/07/18 09:27:24;;;;;;;4.40;2.30;;;;;;;38.81;21.42;99809.33;1782782;80;21327;-81
2023/07/18 09:30:36;;;;;;;3.30;2.12;;;;;;;38.83;21.08;99809.80;1785466;80;21284;-81
2023/07/18 09:33:42;;;;;;;7.75;2.00;;;;;;;38.79;20.82;99803.19;1783308;80;21866;-81
2023/07/18 09:36:53;;;;;;;4.97;1.92;;;;;;;38.70;20.04;99803.17;1784520;80;21929;-81
2023/07/18 09:39:58;;;;;;;5.60;2.27;;;;;;;38.61;19.95;99796.26;1770899;80;21327;-80
2023/07/18 09:43:05;;;;;;;7.35;2.30;;;;;;;38.61;19.78;99784.83;1782980;80;21999;-80
2023/07/18 09:46:11;;;;;;;5.87;2.35;;;;;;;38.62;20.66;99786.47;1783033;80;21276;-80
2023/07/18 09:49:17;;;;;;;3.40;2.22;;;;;;;38.69;20.96;99779.48;1784446;80;21323;-80
2023/07/18 09:52:26;;;;;;;8.68;2.05;;;;;;;38.78;19.90;99780.10;1783140;80;21295;-81
2023/07/18 09:55:34;;;;;;;10.75;2.10;;;;;;;38.85;20.28;99777.36;1783162;80;21356;-81
2023/07/18 09:58:39;;;;;;;8.30;2.60;;;;;;;38.97;19.97;99776.37;1785502;80;21264;-80
2023/07/18 10:01:46;;;;;;;4.70;2.40;;;;;;;39.03;19.91;99773.41;1784437;79;21292;-80
2023/07/18 10:04:54;;;;;;;8.95;2.67;;;;;;;39.09;19.57;99773.30;1771450;80;21291;-81
2023/07/18 10:08:00;;;;;;;5.28;1.98;;;;;;;39.06;20.13;99767.55;1784441;80;21843;-81
2023/07/18 10:11:11;;;;;;;3.72;2.08;;;;;;;39.24;20.69;99766.42;1784470;80;21322;-81
2023/07/18 10:14:20;;;;;;;8.08;2.20;;;;;;;39.36;20.87;99755.61;1783465;80;21323;-81
2023/07/18 10:17:40;;;;;;;4.20;2.27;;;;;;;39.44;21.04;99762.89;1784624;80;21181;-81
2023/07/18 10:20:47;;;;;;;4.25;2.47;;;;;;;39.54;20.58;99759.38;1784667;80;21295;-81
2023/07/18 10:23:53;;;;;;;4.70;2.40;;;;;;;39.36;20.12;99753.36;1783794;80;21354;-81
2023/07/18 10:27:07;;;;;;;8.90;2.50;;;;;;;39.22;19.99;99751.09;1784655;80;21319;-81
2023/07/18 10:30:18;;;;;;;9.35;2.42;;;;;;;39.24;20.31;99749.27;1784647;80;21300;-81
2023/07/18 10:33:26;;;;;;;4.33;2.50;;;;;;;39.21;20.22;99748.63;1783104;80;21873;-81
2023/07/18 10:36:34;;;;;;;4.03;2.47;;;;;;;39.21;20.48;99742.91;1784707;80;21296;-81
2023/07/18 10:39:53;;;;;;;6.40;2.30;;;;;;;39.22;20.58;99741.08;1784439;80;21320;-81
2023/07/18 10:43:01;;;;;;;6.45;2.12;;;;;;;39.28;20.80;99738.11;1784650;80;21870;-81
2023/07/18 10:46:11;;;;;;;4.65;2.27;;;;;;;39.51;21.50;99730.91;1784739;80;21307;-81
2023/07/18 10:49:18;;;;;;;6.53;2.55;;;;;;;39.75;21.53;99725.36;1784980;80;21870;-81
2023/07/18 10:52:24;;;;;;;7.00;2.60;;;;;;;39.98;20.55;99730.17;1784620;80;22372;-81
2023/07/18 10:55:31;;;;;;;12.15;3.12;;;;;;;40.03;20.35;99726.36;1784278;80;21363;-81
2023/07/18 10:58:37;;;;;;;4.70;2.70;;;;;;;40.07;20.70;99720.68;1784615;80;21287;-81
2023/07/18 11:01:44;;;;;;;5.90;2.80;;;;;;;39.98;20.51;99722.41;1784583;79;21300;-81
2023/07/18 11:04:51;;;;;;;8.05;2.65;;;;;;;40.06;21.24;99722.73;1783625;80;21216;-80
2023/07/18 11:07:57;;;;;;;7.37;3.20;;;;;;;40.16;20.86;99714.08;1784938;80;21311;-80
2023/07/18 11:11:07;;;;;;;6.53;2.75;;;;;;;40.00;21.31;99712.84;1783939;80;21973;-81
2023/07/18 11:14:10;;;;;;;4.12;2.70;;;;;;;40.14;21.09;99711.37;1784407;80;21858;-81
2023/07/18 11:17:22;;;;;;;7.35;3.00;;;;;;;40.07;21.25;99709.23;1784634;80;21295;-81
2023/07/18 11:20:22;;;;;;;9.90;2.90;;;;;;;39.81;21.39;99703.80;1784709;80;21804;-81
2023/07/18 11:23:27;;;;;;;4.03;3.10;;;;;;;39.76;21.67;99696.13;1784418;80;21330;-81
2023/07/18 11:26:34;;;;;;;8.63;2.70;;;;;;;39.75;21.51;99702.47;1783617;80;21885;-80
2023/07/18 11:29:41;;;;;;;9.30;3.30;;;;;;;39.64;21.96;99698.64;1770575;80;21906;-80
2023/07/18 11:32:53;;;;;;;9.53;3.22;;;;;;;39.43;21.96;99691.98;1770794;81;21293;-80
2023/07/18 11:35:59;;;;;;;6.80;3.37;;;;;;;39.37;22.37;99684.92;1770822;81;21303;-80
2023/07/18 11:39:07;;;;;;;4.90;2.80;;;;;;;39.23;22.43;99678.38;1770906;81;21311;-80
2023/07/18 11:42:14;;;;;;;7.65;3.65;;;;;;;39.26;22.72;99671.91;1769634;81;21324;-80
2023/07/18 11:45:27;;;;;;;12.90;3.37;;;;;;;39.23;23.46;99674.09;1769928;81;21332;-80
2023/07/18 11:48:32;;;;;;;10.63;3.20;;;;;;;39.13;23.01;99669.61;1770845;81;21297;-80
2023/07/18 11:51:32;;;;;;;7.22;3.15;;;;;;;39.03;23.25;99669.66;1761978;81;21620;-80
2023/07/18 11:54:41;;;;;;;6.92;3.30;;;;;;;38.97;23.24;99666.31;1762189;81;21304;-80
2023/07/18 11:57:51;;;;;;;9.73;3.27;;;;;;;38.90;23.47;99658.20;1770885;81;21846;-80
2023/07/18 12:00:54;;;;;;;6.67;3.10;;;;;;;38.85;23.68;99657.31;1769489;81;21304;-81
2023/07/18 12:04:01;;;;;;;5.10;3.55;;;;;;;38.84;24.00;99655.67;1769367;79;21331;-80
2023/07/18 12:07:09;;;;;;;6.33;3.15;;;;;;;38.87;23.84;99652.67;1770879;81;21170;-80
2023/07/18 12:10:32;;;;;;;11.35;3.22;;;;;;;38.86;24.14;99650.39;1770850;81;21288;-80
2023/07/18 12:13:40;;;;;;;5.50;3.08;;;;;;;38.90;23.90;99647.59;1770998;81;21217;-80
2023/07/18 12:16:46;;;;;;;10.35;3.75;;;;;;;39.04;23.58;99642.72;1770366;81;21346;-80
2023/07/18 12:19:53;;;;;;;10.43;3.22;;;;;;;39.06;23.72;99645.42;1770813;81;21331;-80
2023/07/18 12:22:59;;;;;;;5.62;3.40;;;;;;;39.10;24.12;99640.59;1770783;81;21296;-80
2023/07/18 12:26:05;;;;;;;9.90;3.22;;;;;;;39.43;23.80;99633.34;1769797;81;22009;-80
2023/07/18 12:29:14;;;;;;;8.45;3.60;;;;;;;39.35;24.23;99626.69;1773772;80;21890;-80
2023/07/18 12:32:17;;;;;;;5.70;3.30;;;;;;;39.33;24.34;99633.38;1783993;80;21331;-80
2023/07/18 12:35:24;;;;;;;5.60;3.40;;;;;;;39.15;24.13;99629.43;1784495;80;21865;-80
2023/07/18 12:38:30;;;;;;;8.05;3.40;;;;;;;39.09;24.24;99623.19;1784848;80;21295;-80
2023/07/18 12:41:36;;;;;;;13.93;4.37;;;;;;;39.13;24.11;99617.53;1784534;80;21307;-80
2023/07/18 12:44:51;;;;;;;7.58;3.58;;;;;;;39.21;24.06;99615.05;1784593;80;21297;-80
2023/07/18 12:47:57;;;;;;;7.87;3.35;;;;;;;39.06;24.32;99608.87;1785076;80;21327;-82
2023/07/18 12:51:03;;;;;;;6.75;3.25;;;;;;;39.01;24.59;99611.45;1783038;80;21857;-82
2023/07/18 12:54:08;;;;;;;5.60;3.08;;;;;;;39.08;24.32;99603.57;1784446;80;21311;-79
2023/07/18 12:57:13;;;;;;;11.68;3.47;;;;;;;39.04;24.23;99602.69;1784518;80;21307;-79
2023/07/18 13:00:19;;;;;;;8.00;3.80;;;;;;;39.05;24.23;99597.19;1784604;80;21288;-79
2023/07/18 13:03:27;;;;;;;5.58;3.33;;;;;;;38.94;24.94;99596.21;1783399;79;21303;-79
2023/07/18 13:06:33;;;;;;;6.08;3.02;;;;;;;38.88;25.24;99586.33;1783654;80;21969;-80
2023/07/18 13:09:40;;;;;;;7.25;3.50;;;;;;;39.00;24.78;99587.52;1784632;80;21292;-79
2023/07/18 13:12:47;;;;;;;14.10;3.22;;;;;;;39.08;24.32;99576.41;1783874;79;21149;-79
2023/07/18 13:15:54;;;;;;;8.85;3.10;;;;;;;39.24;24.70;99577.68;1784094;80;21886;-79
2023/07/18 13:19:00;;;;;;;12.20;3.22;;;;;;;39.17;24.27;99574.09;1783221;80;21311;-79
2023/07/18 13:22:06;;;;;;;12.18;3.27;;;;;;;39.13;24.04;99570.36;1784622;80;21292;-79
2023/07/18 13:25:14;;;;;;;10.78;3.10;;;;;;;39.22;23.37;99560.09;1784534;80;21866;-79
2023/07/18 13:28:20;;;;;;;7.85;3.02;;;;;;;39.34;23.26;99556.40;1783053;80;21873;-79
2023/07/18 13:31:27;;;;;;;8.93;3.10;;;;;;;39.43;23.00;99555.25;1772637;80;21366;-79
2023/07/18 13:34:34;;;;;;;4.30;2.80;;;;;;;39.39;22.93;99550.13;1770815;81;21295;-79
2023/07/18 13:37:34;;;;;;;7.67;2.77;;;;;;;39.60;23.61;99548.94;1769349;81;21788;-79
2023/07/18 13:40:27;;;;;;;7.45;3.20;;;;;;;39.54;23.71;99550.51;1769392;81;22582;-79
2023/07/18 13:43:35;;;;;;;6.30;2.70;;;;;;;39.48;23.48;99547.78;1770958;81;21292;-79
2023/07/18 13:46:35;;;;;;;8.03;3.10;;;;;;;39.54;23.52;99547.65;1770249;81;21339;-82
2023/07/18 13:49:42;;;;;;;6.70;2.77;;;;;;;39.57;23.40;99546.84;1769517;81;21319;-82
2023/07/18 13:52:51;;;;;;;5.97;2.65;;;;;;;39.61;23.24;99531.98;1770724;81;21894;-79
2023/07/18 13:55:57;;;;;;;11.53;3.15;;;;;;;39.56;23.68;99534.58;1770906;81;21320;-82
2023/07/18 13:59:03;;;;;;;7.47;2.90;;;;;;;39.73;23.64;99532.37;1771783;81;21284;-82
2023/07/18 14:02:09;;;;;;;13.30;2.90;;;;;;;39.70;23.45;99520.27;1771277;79;22596;-78
2023/07/18 14:05:16;;;;;;;11.97;4.05;;;;;;;39.70;23.60;99515.36;1771064;81;21307;-79
2023/07/18 14:08:22;;;;;;;9.48;3.47;;;;;;;39.61;24.37;99513.38;1770633;81;21894;-79
2023/07/18 14:11:28;;;;;;;7.87;3.58;;;;;;;39.52;24.14;99510.83;1771082;81;21291;-79
2023/07/18 14:14:32;;;;;;;10.45;3.37;;;;;;;39.40;24.53;99511.11;1770883;81;21879;-79
2023/07/18 14:17:39;;;;;;;12.45;3.27;;;;;;;39.36;24.25;99498.80;1769934;81;21873;-79
2023/07/18 14:20:45;;;;;;;12.60;3.30;;;;;;;39.22;24.49;99500.05;1769525;81;21295;-79
2023/07/18 14:23:52;;;;;;;10.20;3.00;;;;;;;39.16;24.17;99500.97;1770481;81;21879;-79
2023/07/18 14:26:58;;;;;;;14.63;3.30;;;;;;;39.05;24.29;99502.27;1770382;81;21190;-80
2023/07/18 14:30:04;;;;;;;16.65;3.08;;;;;;;39.02;24.50;99496.48;1770918;81;21838;-79